North Macon, Georgia
Current Conditions -  °F | °C
As of 11:53 PM on Friday 24 Oct 2014 (Local Time) from KMCN Reporting Station
Clear Clear  
Wind Chill: 49°   Ceiling: Unl
Heat Index: 49°   Visibility: 8mi
Dew Point: 48°   Wind: 3mph
Humidity: 97%   Direction: 280°W
Pressure: 30.02"   Gusts: NA
Location:  32.874°N, 83.7402°W
Report Text: KMCN 250353Z AUTO 28003KT 8SM CLR 09/09 A3002 RMK AO2 SLP163 T00940089 TSNO
Loading
Personal Weather Stations






























Interactive Weather Map
Tropical Storm Tracking
New forecast layout! Learn more

10-Day Weather Forecast

Advertisements
Track Severe Weather on mobile